createdAt,value
2023-01-26T00:01:31.437Z,100850.77
2023-01-26T00:03:59.903Z,100847.19
2023-01-26T00:06:32.779Z,100843.46
2023-01-26T00:09:00.889Z,100841.62
2023-01-26T00:11:30.482Z,100839.59
2023-01-26T00:14:01.156Z,100837.59
2023-01-26T00:16:29.285Z,100833.79
2023-01-26T00:18:57.634Z,100833.64
2023-01-26T00:21:25.795Z,100831.40
2023-01-26T00:23:57.811Z,100830.59
2023-01-26T00:26:29.736Z,100828.08
2023-01-26T00:29:01.368Z,100826.04
2023-01-26T00:31:31.821Z,100825.23
2023-01-26T00:34:05.646Z,100826.13
2023-01-26T00:36:37.835Z,100823.19
2023-01-26T00:39:07.174Z,100818.52
2023-01-26T00:41:55.033Z,100817.02
2023-01-26T00:44:23.308Z,100814.31
2023-01-26T00:46:54.892Z,100817.14
2023-01-26T00:49:23.118Z,100812.10
2023-01-26T00:51:51.142Z,100809.52
2023-01-26T00:54:19.226Z,100809.55
2023-01-26T00:56:54.535Z,100808.44
2023-01-26T00:59:22.689Z,100806.42
2023-01-26T01:01:50.766Z,100808.41
2023-01-26T01:04:18.894Z,100809.25
2023-01-26T01:06:46.991Z,100805.15
2023-01-26T01:09:15.237Z,100803.59
2023-01-26T01:11:43.957Z,100803.88
2023-01-26T01:14:14.879Z,100804.20
2023-01-26T01:16:43.074Z,100802.61
2023-01-26T01:19:13.965Z,100802.46
2023-01-26T01:21:46.301Z,100797.79
2023-01-26T01:24:16.115Z,100797.32
2023-01-26T01:26:44.699Z,100798.00
2023-01-26T01:29:14.880Z,100791.88
2023-01-26T01:31:50.316Z,100792.66
2023-01-26T01:34:20.768Z,100792.36
2023-01-26T01:36:53.387Z,100790.09
2023-01-26T01:39:23.383Z,100787.55
2023-01-26T01:41:55.103Z,100785.30
2023-01-26T01:44:25.331Z,100790.69
2023-01-26T01:46:59.142Z,100791.21
2023-01-26T01:49:39.037Z,100789.13
2023-01-26T01:52:17.640Z,100785.95
2023-01-26T01:54:52.078Z,100779.81
2023-01-26T01:57:27.966Z,100772.30
2023-01-26T02:00:02.101Z,100770.64
2023-01-26T02:02:30.222Z,100768.11
2023-01-26T02:05:00.833Z,100765.38
2023-01-26T02:07:31.720Z,100764.95
2023-01-26T02:10:18.391Z,100758.73
2023-01-26T02:12:52.440Z,100756.21
2023-01-26T02:15:20.564Z,100756.61
2023-01-26T02:17:48.821Z,100751.01
2023-01-26T02:20:29.573Z,100750.08
2023-01-26T02:23:07.178Z,100749.01
2023-01-26T02:25:38.055Z,100743.96
2023-01-26T02:28:06.722Z,100738.71
2023-01-26T02:30:34.999Z,100735.56
2023-01-26T02:33:03.068Z,100730.31
2023-01-26T02:35:31.548Z,100725.35
2023-01-26T02:38:08.233Z,100724.16
2023-01-26T02:40:42.661Z,100722.27
2023-01-26T02:43:11.328Z,100725.55
2023-01-26T02:45:40.587Z,100720.41
2023-01-26T02:48:11.339Z,100718.84
2023-01-26T02:50:41.553Z,100715.23
2023-01-26T02:53:10.987Z,100712.86
2023-01-26T02:55:41.302Z,100713.34
2023-01-26T02:58:09.637Z,100709.21
2023-01-26T03:00:37.832Z,100702.84
2023-01-26T03:03:23.585Z,100705.30
2023-01-26T03:05:52.017Z,100706.02
2023-01-26T03:08:20.256Z,100704.31
2023-01-26T03:10:48.354Z,100703.73
2023-01-26T03:13:16.450Z,100706.42
2023-01-26T03:15:48.191Z,100704.52
2023-01-26T03:18:35.736Z,100699.27
2023-01-26T03:21:34.061Z,100696.05
2023-01-26T03:24:27.335Z,100693.92
2023-01-26T03:27:14.591Z,100694.76
2023-01-26T03:29:44.986Z,100689.99
2023-01-26T03:32:16.203Z,100688.11
2023-01-26T03:34:44.454Z,100685.91
2023-01-26T03:37:12.850Z,100685.19
2023-01-26T03:40:08.565Z,100684.80
2023-01-26T03:42:58.112Z,100684.71
2023-01-26T03:45:49.829Z,100681.56
2023-01-26T03:48:38.206Z,100679.73
2023-01-26T03:51:26.596Z,100677.17
2023-01-26T03:54:13.604Z,100674.80
2023-01-26T03:56:41.853Z,100672.81
2023-01-26T03:59:27.754Z,100669.42
2023-01-26T04:02:14.590Z,100665.75
2023-01-26T04:05:04.551Z,100662.64
2023-01-26T04:08:00.396Z,100659.16
2023-01-26T04:10:31.950Z,100659.05
2023-01-26T04:13:21.933Z,100655.55
2023-01-26T04:16:13.899Z,100650.36
2023-01-26T04:19:01.086Z,100650.79
2023-01-26T04:21:34.111Z,100647.85
2023-01-26T04:24:17.172Z,100648.26
2023-01-26T04:26:48.193Z,100643.77
2023-01-26T04:29:26.355Z,100644.23
2023-01-26T04:31:54.597Z,100647.25
2023-01-26T04:34:24.797Z,100647.99
2023-01-26T04:36:55.857Z,100643.79
2023-01-26T04:39:27.650Z,100642.09
2023-01-26T04:41:57.631Z,100641.00
2023-01-26T04:44:31.016Z,100639.96
2023-01-26T04:47:02.226Z,100637.95
2023-01-26T04:49:30.432Z,100637.54
2023-01-26T04:51:58.555Z,100638.98
2023-01-26T04:54:29.964Z,100640.27
2023-01-26T04:56:58.375Z,100641.94
2023-01-26T04:59:26.632Z,100647.05
2023-01-26T05:01:58.577Z,100642.42
2023-01-26T05:04:27.712Z,100641.73
2023-01-26T05:06:55.878Z,100641.20
2023-01-26T05:09:26.751Z,100642.64
2023-01-26T05:12:32.156Z,100641.79
2023-01-26T05:15:24.361Z,100642.17
2023-01-26T05:18:03.345Z,100638.76
2023-01-26T05:20:40.873Z,100640.08
2023-01-26T05:23:20.472Z,100642.66
2023-01-26T05:26:09.643Z,100642.78
2023-01-26T05:28:47.521Z,100642.73
2023-01-26T05:31:18.112Z,100643.75
2023-01-26T05:33:46.333Z,100643.10
2023-01-26T05:36:19.989Z,100643.10
2023-01-26T05:38:50.166Z,100640.85
2023-01-26T05:41:22.229Z,100637.80
2023-01-26T05:44:04.659Z,100640.11
2023-01-26T05:46:40.445Z,100639.59
2023-01-26T05:49:09.104Z,100640.67
2023-01-26T05:51:39.673Z,100636.55
2023-01-26T05:54:11.798Z,100635.38
2023-01-26T05:56:39.794Z,100635.71
2023-01-26T05:59:11.186Z,100635.77
2023-01-26T06:01:41.347Z,100637.70
2023-01-26T06:04:09.758Z,100638.52
2023-01-26T06:06:46.473Z,100636.91
2023-01-26T06:09:27.577Z,100635.52
2023-01-26T06:12:17.768Z,100636.77
2023-01-26T06:14:57.941Z,100637.53
2023-01-26T06:17:34.222Z,100636.80
2023-01-26T06:20:05.833Z,100634.56
2023-01-26T06:22:35.505Z,100631.63
2023-01-26T06:25:09.032Z,100632.94
2023-01-26T06:27:42.268Z,100631.48
2023-01-26T06:30:26.981Z,100627.98
2023-01-26T06:33:00.310Z,100628.48
2023-01-26T06:35:29.355Z,100631.81
2023-01-26T06:38:01.893Z,100634.54
2023-01-26T06:40:30.166Z,100635.66
2023-01-26T06:42:58.194Z,100636.64
2023-01-26T06:45:27.199Z,100638.27
2023-01-26T06:47:56.320Z,100639.98
2023-01-26T06:50:27.384Z,100642.44
2023-01-26T06:52:56.767Z,100644.30
2023-01-26T06:55:42.005Z,100639.54
2023-01-26T06:58:28.669Z,100635.20
2023-01-26T07:00:57.197Z,100630.51
2023-01-26T07:03:34.459Z,100627.02
2023-01-26T07:06:02.567Z,100623.29
2023-01-26T07:08:30.641Z,100622.17
2023-01-26T07:10:58.703Z,100622.21
2023-01-26T07:13:26.843Z,100620.76
2023-01-26T07:16:01.721Z,100619.58
2023-01-26T07:18:29.801Z,100621.09
2023-01-26T07:21:01.742Z,100620.99
2023-01-26T07:23:29.734Z,100618.77
2023-01-26T07:25:58.507Z,100613.92
2023-01-26T07:28:27.220Z,100611.85
2023-01-26T07:30:57.544Z,100614.44
2023-01-26T07:33:25.751Z,100612.44
2023-01-26T07:35:54.251Z,100610.00
2023-01-26T07:38:22.724Z,100610.40
2023-01-26T07:40:51.038Z,100609.98
2023-01-26T07:43:19.227Z,100607.91
2023-01-26T07:45:53.647Z,100607.73
2023-01-26T07:48:22.919Z,100606.95
2023-01-26T07:50:51.074Z,100603.90
2023-01-26T07:53:19.751Z,100605.84
2023-01-26T07:55:47.773Z,100607.52
2023-01-26T07:58:15.739Z,100610.17
2023-01-26T08:00:47.042Z,100609.88
2023-01-26T08:03:15.086Z,100612.23
2023-01-26T08:05:43.441Z,100613.05
2023-01-26T08:08:11.527Z,100609.04
2023-01-26T08:10:41.549Z,100610.50
2023-01-26T08:13:09.533Z,100606.27
2023-01-26T08:15:37.536Z,100605.06
2023-01-26T08:18:06.073Z,100607.06
2023-01-26T08:20:35.101Z,100604.33
2023-01-26T08:23:03.194Z,100604.68
2023-01-26T08:25:33.095Z,100600.27
2023-01-26T08:28:03.522Z,100600.04
2023-01-26T08:30:34.010Z,100600.59
2023-01-26T08:33:02.006Z,100602.80
2023-01-26T08:35:31.392Z,100602.40
2023-01-26T08:37:59.713Z,100603.12
2023-01-26T08:40:27.823Z,100605.94
2023-01-26T08:42:55.789Z,100605.14
2023-01-26T08:45:23.818Z,100609.84
2023-01-26T08:47:54.031Z,100614.62
2023-01-26T08:50:22.041Z,100616.86
2023-01-26T08:52:50.079Z,100615.46
2023-01-26T08:55:17.996Z,100619.70
2023-01-26T08:57:47.267Z,100617.72
2023-01-26T09:00:15.630Z,100616.59
2023-01-26T09:02:44.160Z,100620.09
2023-01-26T09:05:12.244Z,100621.02
2023-01-26T09:07:40.304Z,100620.55
2023-01-26T09:10:08.901Z,100614.95
2023-01-26T09:12:40.909Z,100612.78
2023-01-26T09:15:09.321Z,100612.98
2023-01-26T09:17:37.418Z,100613.85
2023-01-26T09:20:07.198Z,100611.98
2023-01-26T09:22:35.162Z,100610.93
2023-01-26T09:25:03.553Z,100608.35
2023-01-26T09:27:31.524Z,100603.61
2023-01-26T09:29:59.986Z,100604.71
2023-01-26T09:32:28.067Z,100603.83
2023-01-26T09:34:56.257Z,100601.98
2023-01-26T09:37:24.226Z,100597.46
2023-01-26T09:39:52.266Z,100590.65
2023-01-26T09:42:26.132Z,100590.40
2023-01-26T09:45:00.813Z,100588.98
2023-01-26T09:47:35.309Z,100588.10
2023-01-26T09:50:09.196Z,100584.92
2023-01-26T09:52:48.104Z,100584.36
2023-01-26T09:55:19.309Z,100579.41
2023-01-26T09:57:53.261Z,100573.77
2023-01-26T10:00:29.685Z,100573.50
2023-01-26T10:03:11.315Z,100569.35
2023-01-26T10:05:47.363Z,100565.37
2023-01-26T10:08:16.861Z,100564.88
2023-01-26T10:10:47.729Z,100560.89
2023-01-26T10:13:17.056Z,100559.98
2023-01-26T10:15:52.153Z,100561.16
2023-01-26T10:18:22.696Z,100559.58
2023-01-26T10:20:53.195Z,100551.83
2023-01-26T10:23:23.535Z,100550.06
2023-01-26T10:25:52.432Z,100544.43
2023-01-26T10:28:30.740Z,100540.91
2023-01-26T10:30:59.025Z,100532.77
2023-01-26T10:33:37.064Z,100532.62
2023-01-26T10:36:06.679Z,100531.20
2023-01-26T10:38:34.622Z,100523.81
2023-01-26T10:41:06.950Z,100515.48
2023-01-26T10:43:41.952Z,100511.33
2023-01-26T10:46:42.234Z,100510.72
2023-01-26T10:49:11.535Z,100506.40
2023-01-26T10:51:40.398Z,100500.77
2023-01-26T10:54:27.680Z,100494.79
2023-01-26T10:56:55.599Z,100496.39
2023-01-26T10:59:26.703Z,100489.91
2023-01-26T11:01:59.319Z,100481.52
2023-01-26T11:04:28.008Z,100478.73
2023-01-26T11:06:56.618Z,100472.77
2023-01-26T11:09:28.833Z,100465.23
2023-01-26T11:11:57.978Z,100461.15
2023-01-26T11:14:25.944Z,100455.03
2023-01-26T11:16:57.510Z,100449.73
2023-01-26T11:19:43.429Z,100442.35
2023-01-26T11:22:32.245Z,100441.98
2023-01-26T11:25:04.220Z,100436.45
2023-01-26T11:27:44.602Z,100434.45
2023-01-26T11:30:12.592Z,100430.75
2023-01-26T11:32:55.797Z,100427.65
2023-01-26T11:35:36.172Z,100423.36
2023-01-26T11:38:23.383Z,100417.53
2023-01-26T11:40:51.333Z,100412.78
2023-01-26T11:43:38.221Z,100408.21
2023-01-26T11:46:12.547Z,100406.14
2023-01-26T11:48:59.541Z,100399.27
2023-01-26T11:51:36.463Z,100400.54
2023-01-26T11:54:10.686Z,100401.08
2023-01-26T11:56:41.665Z,100397.04
2023-01-26T11:59:17.696Z,100392.72
2023-01-26T12:01:51.929Z,100391.34
2023-01-26T12:04:21.898Z,100385.57
2023-01-26T12:07:02.809Z,100382.52
2023-01-26T12:09:36.818Z,100376.93
2023-01-26T12:12:13.276Z,100378.77
2023-01-26T12:14:47.122Z,100373.14
2023-01-26T12:17:24.512Z,100370.80
2023-01-26T12:20:11.299Z,100366.83
2023-01-26T12:22:41.685Z,100365.77
2023-01-26T12:25:19.713Z,100367.34
2023-01-26T12:27:53.097Z,100359.81
2023-01-26T12:30:21.139Z,100357.27
2023-01-26T12:32:49.636Z,100356.58
2023-01-26T12:35:23.030Z,100351.75
2023-01-26T12:38:17.295Z,100345.60
2023-01-26T12:41:24.453Z,100339.77
2023-01-26T12:43:58.290Z,100337.77
2023-01-26T12:46:29.044Z,100339.20
2023-01-26T12:49:10.923Z,100334.48
2023-01-26T12:51:49.037Z,100333.95
2023-01-26T12:54:31.748Z,100338.06
2023-01-26T12:57:00.733Z,100340.92
2023-01-26T12:59:47.673Z,100339.99
2023-01-26T13:02:21.094Z,100334.36
2023-01-26T13:04:50.521Z,100337.45
2023-01-26T13:07:47.770Z,100342.92
2023-01-26T13:10:16.300Z,100343.56
2023-01-26T13:12:47.992Z,100347.84
2023-01-26T13:15:17.334Z,100351.67
2023-01-26T13:17:54.594Z,100349.52
2023-01-26T13:20:42.292Z,100345.32
2023-01-26T13:23:31.491Z,100345.90
2023-01-26T13:26:18.086Z,100340.14
2023-01-26T13:28:47.537Z,100337.53
2023-01-26T13:31:35.893Z,100334.48
2023-01-26T13:34:08.422Z,100337.61
2023-01-26T13:36:38.462Z,100336.33
2023-01-26T13:39:14.506Z,100331.34
2023-01-26T13:41:47.456Z,100330.83
2023-01-26T13:44:23.970Z,100334.42
2023-01-26T13:46:57.719Z,100331.40
2023-01-26T13:49:34.878Z,100331.25
2023-01-26T13:52:03.796Z,100329.95
2023-01-26T13:54:31.823Z,100327.98
2023-01-26T13:57:01.229Z,100333.69
2023-01-26T13:59:30.928Z,100336.36
2023-01-26T14:01:59.375Z,100331.63
2023-01-26T14:04:28.780Z,100329.36
2023-01-26T14:06:59.397Z,100328.20
2023-01-26T14:09:31.713Z,100324.77
2023-01-26T14:12:01.296Z,100323.58
2023-01-26T14:14:31.618Z,100321.46
2023-01-26T14:17:08.350Z,100318.38
2023-01-26T14:19:39.496Z,100313.15
2023-01-26T14:22:12.716Z,100307.90
2023-01-26T14:24:50.050Z,100307.48
2023-01-26T14:27:30.462Z,100304.90
2023-01-26T14:29:58.917Z,100299.40
2023-01-26T14:32:29.649Z,100297.26
2023-01-26T14:34:58.892Z,100292.52
2023-01-26T14:37:38.298Z,100286.73
2023-01-26T14:40:36.006Z,100280.59
2023-01-26T14:43:04.237Z,100278.40
2023-01-26T14:45:35.577Z,100270.23
2023-01-26T14:48:07.108Z,100265.21
2023-01-26T14:50:36.363Z,100261.21
2023-01-26T14:53:06.959Z,100271.02
2023-01-26T14:55:36.344Z,100266.80
2023-01-26T14:58:13.277Z,100266.33
2023-01-26T15:00:41.605Z,100266.64
2023-01-26T15:03:33.320Z,100264.09
2023-01-26T15:06:13.522Z,100266.37
2023-01-26T15:09:09.365Z,100265.98
2023-01-26T15:11:59.147Z,100269.67
2023-01-26T15:14:37.742Z,100268.48
2023-01-26T15:17:05.709Z,100266.27
2023-01-26T15:19:39.992Z,100270.23
2023-01-26T15:22:18.515Z,100268.50
2023-01-26T15:24:47.509Z,100268.23
2023-01-26T15:27:15.492Z,100265.43
2023-01-26T15:29:44.631Z,100267.67
2023-01-26T15:32:27.228Z,100259.95
2023-01-26T15:35:17.731Z,100251.98
2023-01-26T15:37:45.838Z,100247.51
2023-01-26T15:40:15.391Z,100241.75
2023-01-26T15:42:43.727Z,100242.06
2023-01-26T15:45:24.686Z,100237.42
2023-01-26T15:47:55.007Z,100242.15
2023-01-26T15:50:28.234Z,100246.09
2023-01-26T15:52:59.350Z,100253.38
2023-01-26T15:55:33.377Z,100253.13
2023-01-26T15:58:01.387Z,100259.61
2023-01-26T16:00:29.438Z,100261.09
2023-01-26T16:02:57.630Z,100262.40
2023-01-26T16:05:27.078Z,100258.54
2023-01-26T16:07:55.154Z,100251.02
2023-01-26T16:10:23.149Z,100246.15
2023-01-26T16:15:52.713Z,100248.33
2023-01-26T16:18:21.834Z,100241.88
2023-01-26T16:20:50.222Z,100242.63
2023-01-26T16:23:27.373Z,100242.70
2023-01-26T16:25:55.877Z,100239.77
2023-01-26T16:28:24.020Z,100249.86
2023-01-26T16:30:54.411Z,100255.76
2023-01-26T16:33:22.604Z,100254.28
2023-01-26T16:35:50.710Z,100250.23
2023-01-26T16:38:18.875Z,100248.39
2023-01-26T16:40:50.042Z,100242.80
2023-01-26T16:43:23.984Z,100244.14
2023-01-26T16:45:52.879Z,100246.47
2023-01-26T16:48:21.548Z,100244.18
2023-01-26T16:50:53.710Z,100241.55
2023-01-26T16:53:27.686Z,100242.23
2023-01-26T16:55:56.122Z,100244.99
2023-01-26T16:58:26.747Z,100241.55
2023-01-26T17:00:55.439Z,100234.23
2023-01-26T17:03:24.092Z,100238.10
2023-01-26T17:05:53.205Z,100234.46
2023-01-26T17:08:25.211Z,100235.90
2023-01-26T17:11:02.497Z,100239.98
2023-01-26T17:13:34.466Z,100233.25
2023-01-26T17:16:34.661Z,100232.86
2023-01-26T17:19:09.250Z,100229.13
2023-01-26T17:21:43.872Z,100227.98
2023-01-26T17:24:12.237Z,100218.50
2023-01-26T17:26:42.177Z,100223.05
2023-01-26T17:29:13.577Z,100221.89
2023-01-26T17:31:41.863Z,100220.59
2023-01-26T17:34:21.506Z,100216.78
2023-01-26T17:36:54.596Z,100211.61
2023-01-26T17:39:25.017Z,100211.55
2023-01-26T17:42:00.617Z,100207.63
2023-01-26T17:44:31.240Z,100205.65
2023-01-26T17:47:01.333Z,100201.46
2023-01-26T17:49:36.222Z,100196.83
2023-01-26T17:52:14.401Z,100199.48
2023-01-26T17:54:42.569Z,100194.46
2023-01-26T17:57:14.116Z,100192.21
2023-01-26T17:59:47.163Z,100192.13
2023-01-26T18:02:15.175Z,100187.11
2023-01-26T18:04:43.269Z,100182.28
2023-01-26T18:07:11.513Z,100182.02
2023-01-26T18:09:41.203Z,100184.07
2023-01-26T18:12:11.825Z,100190.71
2023-01-26T18:14:45.025Z,100192.71
2023-01-26T18:17:18.593Z,100199.29
2023-01-26T18:19:46.750Z,100204.35
2023-01-26T18:22:19.531Z,100202.23
2023-01-26T18:24:48.365Z,100196.45
2023-01-26T18:27:18.935Z,100194.17
2023-01-26T18:29:49.531Z,100191.27
2023-01-26T18:32:17.621Z,100189.30
2023-01-26T18:34:45.748Z,100186.64
2023-01-26T18:37:17.258Z,100190.46
2023-01-26T18:39:45.191Z,100188.27
2023-01-26T18:42:13.378Z,100181.57
2023-01-26T18:44:43.483Z,100176.58
2023-01-26T18:47:15.742Z,100173.31
2023-01-26T18:49:43.801Z,100163.85
2023-01-26T18:52:11.910Z,100160.55
2023-01-26T18:54:43.339Z,100162.09
2023-01-26T18:57:11.528Z,100157.95
2023-01-26T18:59:39.529Z,100151.04
2023-01-26T19:02:07.691Z,100149.18
2023-01-26T19:04:35.665Z,100149.59
2023-01-26T19:07:04.826Z,100149.63
2023-01-26T19:09:36.032Z,100143.42
2023-01-26T19:12:08.882Z,100135.05
2023-01-26T19:14:36.936Z,100130.69
2023-01-26T19:17:04.983Z,100127.84
2023-01-26T19:19:33.073Z,100125.14
2023-01-26T19:22:03.480Z,100121.11
2023-01-26T19:24:31.682Z,100124.52
2023-01-26T19:26:59.833Z,100124.09
2023-01-26T19:29:27.949Z,100123.33
2023-01-26T19:32:00.434Z,100122.20
2023-01-26T19:34:32.297Z,100116.85
2023-01-26T19:37:00.281Z,100109.16
2023-01-26T19:39:28.332Z,100107.81
2023-01-26T19:41:57.327Z,100111.77
2023-01-26T19:44:30.766Z,100106.34
2023-01-26T19:46:58.818Z,100093.98
2023-01-26T19:49:33.657Z,100096.79
2023-01-26T19:52:33.197Z,100101.23
2023-01-26T19:55:02.202Z,100100.73
2023-01-26T19:57:33.439Z,100097.44
2023-01-26T20:00:01.616Z,100094.58
2023-01-26T20:02:29.650Z,100091.43
2023-01-26T20:04:57.928Z,100093.98
2023-01-26T20:07:32.986Z,100089.00
2023-01-26T20:10:00.919Z,100089.35
2023-01-26T20:12:28.929Z,100090.38
2023-01-26T20:15:00.562Z,100087.06
2023-01-26T20:17:28.769Z,100089.48
2023-01-26T20:19:56.775Z,100092.57
2023-01-26T20:22:24.780Z,100088.40
2023-01-26T20:24:54.196Z,100088.91
2023-01-26T20:27:22.289Z,100084.80
2023-01-26T20:29:50.339Z,100079.66
2023-01-26T20:32:18.293Z,100074.33
2023-01-26T20:34:46.202Z,100068.20
2023-01-26T20:37:15.531Z,100064.98
2023-01-26T20:39:46.985Z,100049.10
2023-01-26T20:42:19.107Z,100040.15
2023-01-26T20:44:47.377Z,100036.96
2023-01-26T20:47:17.410Z,100037.64
2023-01-26T20:49:45.383Z,100037.86
2023-01-26T20:52:13.352Z,100037.17
2023-01-26T20:54:41.334Z,100037.13
2023-01-26T20:57:10.714Z,100037.59
2023-01-26T20:59:38.881Z,100040.52
2023-01-26T21:02:07.117Z,100042.12
2023-01-26T21:04:35.203Z,100036.09
2023-01-26T21:07:03.321Z,100030.61
2023-01-26T21:09:31.922Z,100034.94
2023-01-26T21:12:02.160Z,100035.77
2023-01-26T21:14:37.457Z,100039.21
2023-01-26T21:17:07.663Z,100038.83
2023-01-26T21:19:35.740Z,100034.84
2023-01-26T21:22:04.905Z,100035.88
2023-01-26T21:24:34.885Z,100038.16
2023-01-26T21:27:03.064Z,100041.08
2023-01-26T21:29:31.051Z,100031.05
2023-01-26T21:31:59.225Z,100029.48
2023-01-26T21:34:29.491Z,100033.75
2023-01-26T21:36:59.779Z,100023.80
2023-01-26T21:39:27.779Z,100022.45
2023-01-26T21:41:55.799Z,100025.00
2023-01-26T21:44:25.183Z,100022.38
2023-01-26T21:46:57.517Z,100020.08
2023-01-26T21:49:25.611Z,100021.12
2023-01-26T21:52:15.430Z,100016.70
2023-01-26T21:54:43.378Z,100013.56
2023-01-26T21:57:30.064Z,100009.40
2023-01-26T22:00:08.360Z,100006.80
2023-01-26T22:02:36.444Z,100005.45
2023-01-26T22:05:04.608Z,100004.02
2023-01-26T22:07:32.725Z,100001.27
2023-01-26T22:10:00.757Z,100000.44
2023-01-26T22:12:33.011Z,100003.46
2023-01-26T22:15:01.071Z,100000.84
2023-01-26T22:17:29.081Z,99996.98
2023-01-26T22:19:59.570Z,99995.08
2023-01-26T22:22:27.511Z,100000.84
2023-01-26T22:25:11.102Z,99996.16
2023-01-26T22:27:39.578Z,99995.03
2023-01-26T22:30:07.801Z,99998.47
2023-01-26T22:32:38.462Z,99990.62
2023-01-26T22:35:06.498Z,99984.14
2023-01-26T22:37:34.475Z,99980.64
2023-01-26T22:40:02.545Z,99981.19
2023-01-26T22:42:30.492Z,99982.42
2023-01-26T22:44:58.789Z,99980.34
2023-01-26T22:47:26.798Z,99978.02
2023-01-26T22:50:02.185Z,99978.84
2023-01-26T22:52:30.243Z,99977.20
2023-01-26T22:54:58.167Z,99978.30
2023-01-26T22:57:26.337Z,99967.39
2023-01-26T22:59:54.208Z,99966.08
2023-01-26T23:02:22.089Z,99961.91
2023-01-26T23:04:54.574Z,99961.67
2023-01-26T23:07:24.964Z,99961.77
2023-01-26T23:09:52.875Z,99957.57
2023-01-26T23:12:20.751Z,99954.42
2023-01-26T23:14:52.224Z,99953.68
2023-01-26T23:17:20.316Z,99953.16
2023-01-26T23:19:49.689Z,99948.45
2023-01-26T23:22:17.642Z,99945.80
2023-01-26T23:25:05.417Z,99949.34
2023-01-26T23:27:33.268Z,99942.73
2023-01-26T23:30:03.192Z,99940.03
2023-01-26T23:32:31.447Z,99943.09
2023-01-26T23:35:00.269Z,99936.73
2023-01-26T23:37:28.133Z,99936.25
2023-01-26T23:39:58.001Z,99935.31
2023-01-26T23:42:27.990Z,99935.56
2023-01-26T23:44:56.182Z,99933.82
2023-01-26T23:47:24.241Z,99925.67
2023-01-26T23:49:52.201Z,99921.95
2023-01-26T23:52:22.475Z,99922.77
2023-01-26T23:54:56.610Z,99915.07
2023-01-26T23:57:45.594Z,99918.29
